createdAt,value
2019-05-21T00:01:41.907Z,3.42
2019-05-21T00:04:11.632Z,4.03
2019-05-21T00:06:40.453Z,6.22
2019-05-21T00:09:09.319Z,4.55
2019-05-21T00:11:38.127Z,4.00
2019-05-21T00:14:06.938Z,5.22
2019-05-21T00:16:35.771Z,4.55
2019-05-21T00:19:04.587Z,5.53
2019-05-21T00:21:33.411Z,4.42
2019-05-21T00:24:02.228Z,4.37
2019-05-21T00:26:31.066Z,3.98
2019-05-21T00:29:35.495Z,3.40
2019-05-21T00:32:40.402Z,4.87
2019-05-21T00:35:46.712Z,3.30
2019-05-21T00:38:52.065Z,14.18
2019-05-21T00:41:56.929Z,6.50
2019-05-21T00:44:25.853Z,3.67
2019-05-21T00:46:54.706Z,4.33
2019-05-21T00:49:23.513Z,3.12
2019-05-21T00:52:06.481Z,3.52
2019-05-21T00:54:22.841Z,2.92
2019-05-21T00:56:51.695Z,2.60
2019-05-21T00:59:20.494Z,3.60
2019-05-21T01:01:49.312Z,3.92
2019-05-21T01:04:18.136Z,3.08
2019-05-21T01:06:46.952Z,3.17
2019-05-21T01:09:15.775Z,3.98
2019-05-21T01:11:44.585Z,2.92
2019-05-21T01:14:13.439Z,4.35
2019-05-21T01:16:42.233Z,3.25
2019-05-21T01:19:11.049Z,2.45
2019-05-21T01:21:39.862Z,3.50
2019-05-21T01:24:08.783Z,3.67
2019-05-21T01:26:37.603Z,3.02
2019-05-21T01:29:06.518Z,5.33
2019-05-21T01:31:35.329Z,3.52
2019-05-21T01:34:04.155Z,3.37
2019-05-21T01:36:32.978Z,3.37
2019-05-21T01:39:01.895Z,3.55
2019-05-21T01:41:30.711Z,2.70
2019-05-21T01:43:59.524Z,3.20
2019-05-21T01:46:28.347Z,2.40
2019-05-21T01:48:57.160Z,4.92
2019-05-21T01:51:25.983Z,2.98
2019-05-21T01:53:54.799Z,3.75
2019-05-21T01:56:23.626Z,2.40
2019-05-21T01:58:52.448Z,3.65
2019-05-21T02:01:21.271Z,5.30
2019-05-21T02:03:50.095Z,3.27
2019-05-21T02:06:18.917Z,3.05
2019-05-21T02:08:47.739Z,3.58
2019-05-21T02:11:16.618Z,2.50
2019-05-21T02:13:45.438Z,3.15
2019-05-21T02:16:14.343Z,3.15
2019-05-21T02:18:43.161Z,2.95
2019-05-21T02:21:11.979Z,2.87
2019-05-21T02:23:40.811Z,3.70
2019-05-21T02:26:09.628Z,2.20
2019-05-21T02:28:38.459Z,2.65
2019-05-21T02:31:07.271Z,2.67
2019-05-21T02:33:36.106Z,3.37
2019-05-21T02:36:04.921Z,3.60
2019-05-21T02:38:33.744Z,3.12
2019-05-21T02:41:02.654Z,4.42
2019-05-21T02:43:31.562Z,3.27
2019-05-21T02:46:00.409Z,4.00
2019-05-21T02:48:29.216Z,2.60
2019-05-21T02:50:58.048Z,3.25
2019-05-21T02:53:26.866Z,4.78
2019-05-21T02:55:55.698Z,3.27
2019-05-21T02:58:24.509Z,2.45
2019-05-21T03:00:57.883Z,4.10
2019-05-21T03:03:31.213Z,4.22
2019-05-21T03:06:13.185Z,3.40
2019-05-21T03:08:31.049Z,3.12
2019-05-21T03:10:59.855Z,4.42
2019-05-21T03:13:28.670Z,3.90
2019-05-21T03:15:57.499Z,2.85
2019-05-21T03:18:26.320Z,3.77
2019-05-21T03:20:55.137Z,2.62
2019-05-21T03:23:24.060Z,3.22
2019-05-21T03:25:52.881Z,3.67
2019-05-21T03:28:21.707Z,2.60
2019-05-21T03:30:50.516Z,3.20
2019-05-21T03:33:19.336Z,5.22
2019-05-21T03:35:48.155Z,3.72
2019-05-21T03:38:16.976Z,2.92
2019-05-21T03:40:45.794Z,5.58
2019-05-21T03:43:14.616Z,3.40
2019-05-21T03:45:43.432Z,3.00
2019-05-21T03:48:12.356Z,2.85
2019-05-21T03:50:41.172Z,3.12
2019-05-21T03:53:10.052Z,5.80
2019-05-21T03:55:38.875Z,3.50
2019-05-21T03:58:07.699Z,2.65
2019-05-21T04:00:36.552Z,2.92
2019-05-21T04:03:05.652Z,3.80
2019-05-21T04:05:34.697Z,4.20
2019-05-21T04:08:03.731Z,2.98
2019-05-21T04:10:32.548Z,3.00
2019-05-21T04:13:07.835Z,2.72
2019-05-21T04:15:45.839Z,4.58
2019-05-21T04:18:16.236Z,3.33
2019-05-21T04:20:45.068Z,7.78
2019-05-21T04:23:13.877Z,3.83
2019-05-21T04:25:42.708Z,4.55
2019-05-21T04:28:11.536Z,4.05
2019-05-21T04:30:40.389Z,7.10
2019-05-21T04:33:09.211Z,10.08
2019-05-21T04:35:38.024Z,4.60
2019-05-21T04:38:06.846Z,8.10
2019-05-21T04:40:35.666Z,3.30
2019-05-21T04:43:04.490Z,4.37
2019-05-21T04:45:33.305Z,5.97
2019-05-21T04:48:02.117Z,5.55
2019-05-21T04:50:30.936Z,4.28
2019-05-21T04:52:59.756Z,5.85
2019-05-21T04:55:28.573Z,4.05
2019-05-21T04:57:57.394Z,7.00
2019-05-21T05:00:26.219Z,2.75
2019-05-21T05:02:55.031Z,8.55
2019-05-21T05:05:23.859Z,5.03
2019-05-21T05:07:52.673Z,4.08
2019-05-21T05:10:21.494Z,3.77
2019-05-21T05:12:50.320Z,3.12
2019-05-21T05:15:19.159Z,4.03
2019-05-21T05:17:47.982Z,4.00
2019-05-21T05:20:17.710Z,8.18
2019-05-21T05:22:46.514Z,3.72
2019-05-21T05:25:15.475Z,6.40
2019-05-21T05:27:44.321Z,4.92
2019-05-21T05:30:14.533Z,3.35
2019-05-21T05:32:43.371Z,4.10
2019-05-21T05:35:12.318Z,17.25
2019-05-21T05:37:45.231Z,13.93
2019-05-21T05:40:12.037Z,13.35
2019-05-21T05:42:40.940Z,9.73
2019-05-21T05:45:10.116Z,10.88
2019-05-21T05:47:38.898Z,8.60
2019-05-21T05:50:12.476Z,5.33
2019-05-21T05:52:41.305Z,10.55
2019-05-21T05:55:10.224Z,9.55
2019-05-21T05:57:39.064Z,12.03
2019-05-21T06:00:10.580Z,7.83
2019-05-21T06:02:39.436Z,5.97
2019-05-21T06:05:08.534Z,5.90
2019-05-21T06:07:40.845Z,5.65
2019-05-21T06:10:09.888Z,6.20
2019-05-21T06:12:38.707Z,7.75
2019-05-21T06:15:08.283Z,6.47
2019-05-21T06:17:37.281Z,8.25
2019-05-21T06:20:07.694Z,3.90
2019-05-21T06:22:36.534Z,2.70
2019-05-21T06:25:07.306Z,6.50
2019-05-21T06:27:36.132Z,8.65
2019-05-21T06:30:08.431Z,3.83
2019-05-21T06:32:37.322Z,6.83
2019-05-21T06:35:06.821Z,6.03
2019-05-21T06:37:35.631Z,4.90
2019-05-21T06:40:05.564Z,4.90
2019-05-21T06:42:34.397Z,4.58
2019-05-21T06:45:03.651Z,4.15
2019-05-21T06:47:32.574Z,6.40
2019-05-21T06:50:01.398Z,6.22
2019-05-21T06:52:30.215Z,4.30
2019-05-21T06:54:59.056Z,9.83
2019-05-21T06:57:27.867Z,4.45
2019-05-21T06:59:56.699Z,4.28
2019-05-21T07:02:25.591Z,6.92
2019-05-21T07:04:54.428Z,10.90
2019-05-21T07:07:23.247Z,19.85
2019-05-21T07:09:52.098Z,21.95
2019-05-21T07:12:20.919Z,26.90
2019-05-21T07:14:49.796Z,24.65
2019-05-21T07:17:18.618Z,28.55
2019-05-21T07:19:47.450Z,27.90
2019-05-21T07:22:16.280Z,29.50
2019-05-21T07:24:45.110Z,29.37
2019-05-21T07:27:14.377Z,27.98
2019-05-21T07:29:43.259Z,23.92
2019-05-21T07:32:12.107Z,25.80
2019-05-21T07:34:40.937Z,23.80
2019-05-21T07:37:09.782Z,23.75
2019-05-21T07:39:38.800Z,24.47
2019-05-21T07:42:07.636Z,25.23
2019-05-21T07:44:36.491Z,26.75
2019-05-21T07:47:05.372Z,22.40
2019-05-21T07:49:34.270Z,21.12
2019-05-21T07:52:03.282Z,19.73
2019-05-21T07:54:32.075Z,20.48
2019-05-21T07:57:00.916Z,18.15
2019-05-21T07:59:29.791Z,17.87
2019-05-21T08:01:58.802Z,15.43
2019-05-21T08:04:27.622Z,13.30
2019-05-21T08:06:56.448Z,14.83
2019-05-21T08:09:25.302Z,11.73
2019-05-21T08:11:54.115Z,9.65
2019-05-21T08:14:23.013Z,13.78
2019-05-21T08:16:51.892Z,16.70
2019-05-21T08:19:21.914Z,11.03
2019-05-21T08:21:50.910Z,9.73
2019-05-21T08:24:20.031Z,11.10
2019-05-21T08:26:48.875Z,11.08
2019-05-21T08:29:17.719Z,12.85
2019-05-21T08:31:46.647Z,11.05
2019-05-21T08:34:15.471Z,7.25
2019-05-21T08:36:44.299Z,7.87
2019-05-21T08:39:27.668Z,12.93
2019-05-21T08:41:44.041Z,10.03
2019-05-21T08:44:12.948Z,8.75
2019-05-21T08:46:41.773Z,9.35
2019-05-21T08:49:10.628Z,9.13
2019-05-21T08:51:39.537Z,8.38
2019-05-21T08:54:08.347Z,10.30
2019-05-21T08:56:37.184Z,12.33
2019-05-21T08:59:06.097Z,7.25
2019-05-21T09:01:35.015Z,6.95
2019-05-21T09:04:04.009Z,5.55
2019-05-21T09:06:32.814Z,9.05
2019-05-21T09:09:01.659Z,9.53
2019-05-21T09:11:30.498Z,7.15
2019-05-21T09:13:59.354Z,6.12
2019-05-21T09:16:28.161Z,12.43
2019-05-21T09:18:57.023Z,8.70
2019-05-21T09:21:25.993Z,9.03
2019-05-21T09:23:55.047Z,11.70
2019-05-21T09:26:23.840Z,8.75
2019-05-21T09:28:52.680Z,11.80
2019-05-21T09:31:21.516Z,9.03
2019-05-21T09:33:50.335Z,10.98
2019-05-21T09:36:19.160Z,7.50
2019-05-21T09:38:47.984Z,11.20
2019-05-21T09:41:16.812Z,4.42
2019-05-21T09:43:45.631Z,7.95
2019-05-21T09:46:14.451Z,4.78
2019-05-21T09:48:43.271Z,7.58
2019-05-21T09:51:19.772Z,7.40
2019-05-21T09:53:42.766Z,7.78
2019-05-21T09:56:29.126Z,8.00
2019-05-21T09:58:59.544Z,7.53
2019-05-21T10:01:29.941Z,3.62
2019-05-21T10:04:00.251Z,5.53
2019-05-21T10:06:29.286Z,7.65
2019-05-21T10:08:59.525Z,4.87
2019-05-21T10:11:28.342Z,3.33
2019-05-21T10:13:57.167Z,3.90
2019-05-21T10:16:25.987Z,2.27
2019-05-21T10:18:57.488Z,4.80
2019-05-21T10:21:28.786Z,2.90
2019-05-21T10:23:58.558Z,1.80
2019-05-21T10:26:27.570Z,3.02
2019-05-21T10:28:56.378Z,2.87
2019-05-21T10:31:25.203Z,2.27
2019-05-21T10:33:54.028Z,3.12
2019-05-21T10:36:22.857Z,1.60
2019-05-21T10:38:51.713Z,4.87
2019-05-21T10:41:20.528Z,4.45
2019-05-21T10:43:49.351Z,2.37
2019-05-21T10:46:18.180Z,2.22
2019-05-21T10:48:47.013Z,3.35
2019-05-21T10:51:15.841Z,3.37
2019-05-21T10:53:44.712Z,5.70
2019-05-21T10:56:13.524Z,2.85
2019-05-21T10:58:42.364Z,2.55
2019-05-21T11:01:12.748Z,2.70
2019-05-21T11:03:46.143Z,1.92
2019-05-21T11:06:16.579Z,4.28
2019-05-21T11:08:45.390Z,2.40
2019-05-21T11:11:14.212Z,2.52
2019-05-21T11:13:43.050Z,2.10
2019-05-21T11:16:11.923Z,2.80
2019-05-21T11:18:40.799Z,1.77
2019-05-21T11:21:09.627Z,3.35
2019-05-21T11:23:38.469Z,3.10
2019-05-21T11:26:07.270Z,1.80
2019-05-21T11:28:36.087Z,2.33
2019-05-21T11:31:04.999Z,2.70
2019-05-21T11:33:34.109Z,2.50
2019-05-21T11:36:02.930Z,2.02
2019-05-21T11:38:39.434Z,1.70
2019-05-21T11:41:02.325Z,2.15
2019-05-21T11:43:31.181Z,2.35
2019-05-21T11:46:03.008Z,2.80
2019-05-21T11:48:30.495Z,2.27
2019-05-21T11:50:59.320Z,1.85
2019-05-21T11:53:31.789Z,2.72
2019-05-21T11:55:58.616Z,4.22
2019-05-21T11:58:27.439Z,5.37
2019-05-21T12:00:56.251Z,1.60
2019-05-21T12:03:25.085Z,2.58
2019-05-21T12:05:54.034Z,2.33
2019-05-21T12:08:22.860Z,3.90
2019-05-21T12:10:51.691Z,2.37
2019-05-21T12:13:20.757Z,2.40
2019-05-21T12:15:49.721Z,2.30
2019-05-21T12:18:18.541Z,2.08
2019-05-21T12:20:47.415Z,1.80
2019-05-21T12:23:16.218Z,2.55
2019-05-21T12:25:45.039Z,2.10
2019-05-21T12:28:13.855Z,2.27
2019-05-21T12:30:42.684Z,2.92
2019-05-21T12:33:11.503Z,3.20
2019-05-21T12:35:40.322Z,2.67
2019-05-21T12:38:09.143Z,3.35
2019-05-21T12:40:38.007Z,5.12
2019-05-21T12:43:06.816Z,2.35
2019-05-21T12:45:35.627Z,3.12
2019-05-21T12:48:04.459Z,2.33
2019-05-21T12:50:33.277Z,4.70
2019-05-21T12:53:02.099Z,2.02
2019-05-21T12:55:30.915Z,4.37
2019-05-21T12:57:59.749Z,3.55
2019-05-21T13:00:34.267Z,4.33
2019-05-21T13:03:03.151Z,4.30
2019-05-21T13:05:32.053Z,3.22
2019-05-21T13:08:00.944Z,2.83
2019-05-21T13:10:29.830Z,2.37
2019-05-21T13:12:58.647Z,8.80
2019-05-21T13:15:27.458Z,2.15
2019-05-21T13:17:56.279Z,2.52
2019-05-21T13:20:25.111Z,4.58
2019-05-21T13:22:54.121Z,2.35
2019-05-21T13:25:22.946Z,7.10
2019-05-21T13:27:51.835Z,3.92
2019-05-21T13:30:20.863Z,3.40
2019-05-21T13:32:49.675Z,2.37
2019-05-21T13:35:18.495Z,4.62
2019-05-21T13:37:47.328Z,2.58
2019-05-21T13:40:18.149Z,3.25
2019-05-21T13:42:46.981Z,3.85
2019-05-21T13:45:15.796Z,2.65
2019-05-21T13:47:44.651Z,2.87
2019-05-21T13:50:13.575Z,3.80
2019-05-21T13:52:42.492Z,2.77
2019-05-21T13:55:11.416Z,4.97
2019-05-21T13:57:40.257Z,3.58
2019-05-21T14:00:11.142Z,3.15
2019-05-21T14:02:39.939Z,2.80
2019-05-21T14:05:09.874Z,2.62
2019-05-21T14:07:38.682Z,3.08
2019-05-21T14:10:19.833Z,3.30
2019-05-21T14:12:38.347Z,2.87
2019-05-21T14:15:07.162Z,2.55
2019-05-21T14:17:35.988Z,3.72
2019-05-21T14:20:10.743Z,2.75
2019-05-21T14:22:39.568Z,3.58
2019-05-21T14:25:08.472Z,3.33
2019-05-21T14:27:44.452Z,2.92
2019-05-21T14:30:09.305Z,4.55
2019-05-21T14:32:38.119Z,4.62
2019-05-21T14:35:07.127Z,3.20
2019-05-21T14:37:35.949Z,3.00
2019-05-21T14:40:06.770Z,3.12
2019-05-21T14:42:35.586Z,3.55
2019-05-21T14:45:05.903Z,4.30
2019-05-21T14:47:34.726Z,2.70
2019-05-21T14:50:04.974Z,3.45
2019-05-21T14:52:33.795Z,3.55
2019-05-21T14:55:03.259Z,3.75
2019-05-21T14:57:32.871Z,3.80
2019-05-21T15:00:01.673Z,3.22
2019-05-21T15:02:30.498Z,3.40
2019-05-21T15:04:59.363Z,3.08
2019-05-21T15:07:28.338Z,4.60
2019-05-21T15:09:57.207Z,4.53
2019-05-21T15:12:25.990Z,4.12
2019-05-21T15:14:54.806Z,4.25
2019-05-21T15:17:23.679Z,5.85
2019-05-21T15:19:57.053Z,5.30
2019-05-21T15:22:25.867Z,5.97
2019-05-21T15:24:54.691Z,4.37
2019-05-21T15:27:23.517Z,5.12
2019-05-21T15:29:52.330Z,6.10
2019-05-21T15:32:21.189Z,5.83
2019-05-21T15:34:50.107Z,5.28
2019-05-21T15:37:19.019Z,5.55
2019-05-21T15:39:47.858Z,5.67
2019-05-21T15:42:16.675Z,5.62
2019-05-21T15:44:45.495Z,6.25
2019-05-21T15:47:14.307Z,5.45
2019-05-21T15:49:43.131Z,6.33
2019-05-21T15:52:11.957Z,6.35
2019-05-21T15:54:40.789Z,8.18
2019-05-21T15:57:10.758Z,6.10
2019-05-21T15:59:39.758Z,5.55
2019-05-21T16:02:10.535Z,6.58
2019-05-21T16:04:39.395Z,6.15
2019-05-21T16:07:08.217Z,7.05
2019-05-21T16:09:37.037Z,8.10
2019-05-21T16:12:05.884Z,7.15
2019-05-21T16:14:34.717Z,5.17
2019-05-21T16:17:03.534Z,7.08
2019-05-21T16:19:32.453Z,6.03
2019-05-21T16:22:01.451Z,8.83
2019-05-21T16:24:32.243Z,6.62
2019-05-21T16:27:01.282Z,8.65
2019-05-21T16:29:30.119Z,7.97
2019-05-21T16:31:58.984Z,10.00
2019-05-21T16:34:31.339Z,8.43
2019-05-21T16:36:58.308Z,7.75
2019-05-21T16:39:27.217Z,9.55
2019-05-21T16:41:56.052Z,8.00
2019-05-21T16:44:25.038Z,6.58
2019-05-21T16:46:54.193Z,8.25
2019-05-21T16:49:23.360Z,7.53
2019-05-21T16:51:52.470Z,7.95
2019-05-21T16:54:21.407Z,10.58
2019-05-21T16:56:50.347Z,9.90
2019-05-21T16:59:19.268Z,8.90
2019-05-21T17:01:48.089Z,8.95
2019-05-21T17:04:16.911Z,7.28
2019-05-21T17:06:45.788Z,7.50
2019-05-21T17:09:14.613Z,7.83
2019-05-21T17:11:43.430Z,11.38
2019-05-21T17:14:12.278Z,7.97
2019-05-21T17:16:41.092Z,8.38
2019-05-21T17:19:10.081Z,8.70
2019-05-21T17:21:38.915Z,6.83
2019-05-21T17:24:07.747Z,8.85
2019-05-21T17:26:36.576Z,8.58
2019-05-21T17:29:05.493Z,10.03
2019-05-21T17:31:34.427Z,7.45
2019-05-21T17:34:03.657Z,8.30
2019-05-21T17:36:32.542Z,10.58
2019-05-21T17:39:01.393Z,6.75
2019-05-21T17:41:30.175Z,6.53
2019-05-21T17:43:58.992Z,9.25
2019-05-21T17:46:27.865Z,8.95
2019-05-21T17:48:56.663Z,11.83
2019-05-21T17:51:25.512Z,8.08
2019-05-21T17:53:54.420Z,8.10
2019-05-21T17:56:23.603Z,7.22
2019-05-21T17:58:52.424Z,7.37
2019-05-21T18:01:21.445Z,6.70
2019-05-21T18:03:50.459Z,6.30
2019-05-21T18:06:18.767Z,7.80
2019-05-21T18:08:47.820Z,6.95
2019-05-21T18:11:17.315Z,8.90
2019-05-21T18:13:48.074Z,6.30
2019-05-21T18:16:17.508Z,6.53
2019-05-21T18:18:47.117Z,7.58
2019-05-21T18:21:16.499Z,6.55
2019-05-21T18:23:45.343Z,8.08
2019-05-21T18:26:14.348Z,6.80
2019-05-21T18:28:43.294Z,6.58
2019-05-21T18:31:12.106Z,9.88
2019-05-21T18:33:41.053Z,8.43
2019-05-21T18:36:10.183Z,8.33
2019-05-21T18:38:38.994Z,5.75
2019-05-21T18:41:07.827Z,6.08
2019-05-21T18:43:36.755Z,6.67
2019-05-21T18:46:05.676Z,6.67
2019-05-21T18:48:34.494Z,6.00
2019-05-21T18:51:03.305Z,8.58
2019-05-21T18:53:32.128Z,7.55
2019-05-21T18:56:00.943Z,6.33
2019-05-21T18:58:29.773Z,5.33
2019-05-21T19:00:58.587Z,8.80
2019-05-21T19:03:27.552Z,8.50
2019-05-21T19:05:56.575Z,8.55
2019-05-21T19:08:25.395Z,9.85
2019-05-21T19:10:54.322Z,10.13
2019-05-21T19:13:23.147Z,6.60
2019-05-21T19:15:51.975Z,7.55
2019-05-21T19:18:20.898Z,9.33
2019-05-21T19:20:50.246Z,9.88
2019-05-21T19:23:19.066Z,7.30
2019-05-21T19:25:47.980Z,7.33
2019-05-21T19:28:16.801Z,6.92
2019-05-21T19:30:45.620Z,8.05
2019-05-21T19:33:14.448Z,8.18
2019-05-21T19:35:43.269Z,9.43
2019-05-21T19:38:12.087Z,8.63
2019-05-21T19:40:40.915Z,7.35
2019-05-21T19:43:09.723Z,7.90
2019-05-21T19:45:38.751Z,8.85
2019-05-21T19:48:07.580Z,6.53
2019-05-21T19:50:36.717Z,8.73
2019-05-21T19:53:05.540Z,9.60
2019-05-21T19:55:35.426Z,7.45
2019-05-21T19:58:04.641Z,8.58
2019-05-21T20:00:35.033Z,9.60
2019-05-21T20:03:04.478Z,7.40
2019-05-21T20:05:33.775Z,8.33
2019-05-21T20:08:02.998Z,11.63
2019-05-21T20:10:34.188Z,9.48
2019-05-21T20:13:02.387Z,10.88
2019-05-21T20:15:31.215Z,12.07
2019-05-21T20:18:07.439Z,12.63
2019-05-21T20:20:30.611Z,11.95
2019-05-21T20:23:00.123Z,12.58
2019-05-21T20:25:30.251Z,13.03
2019-05-21T20:27:59.520Z,19.32
2019-05-21T20:30:28.558Z,13.83
2019-05-21T20:32:57.704Z,14.05
2019-05-21T20:35:27.703Z,13.58
2019-05-21T20:37:56.522Z,13.45
2019-05-21T20:40:25.552Z,12.88
2019-05-21T20:42:54.738Z,13.80
2019-05-21T20:45:25.127Z,14.73
2019-05-21T20:47:54.273Z,12.78
2019-05-21T20:50:23.499Z,13.20
2019-05-21T20:52:52.713Z,12.37
2019-05-21T20:55:21.936Z,12.35
2019-05-21T20:57:51.032Z,13.48
2019-05-21T21:00:23.710Z,12.10
2019-05-21T21:02:52.843Z,11.90
2019-05-21T21:05:21.760Z,13.90
2019-05-21T21:07:51.219Z,14.13
2019-05-21T21:10:20.819Z,11.50
2019-05-21T21:12:49.901Z,12.45
2019-05-21T21:15:19.316Z,11.20
2019-05-21T21:17:48.336Z,12.53
2019-05-21T21:20:17.365Z,12.25
2019-05-21T21:22:46.683Z,11.30
2019-05-21T21:25:19.892Z,10.95
2019-05-21T21:27:48.693Z,12.80
2019-05-21T21:30:17.703Z,13.65
2019-05-21T21:32:46.601Z,11.80
2019-05-21T21:35:15.779Z,11.63
2019-05-21T21:37:44.695Z,11.08
2019-05-21T21:40:15.487Z,11.18
2019-05-21T21:42:44.324Z,15.40
2019-05-21T21:45:13.938Z,11.63
2019-05-21T21:47:43.661Z,11.78
2019-05-21T21:50:14.328Z,10.50
2019-05-21T21:52:43.370Z,10.68
2019-05-21T21:55:12.472Z,14.90
2019-05-21T21:57:41.307Z,11.18
2019-05-21T22:00:36.319Z,11.48
2019-05-21T22:03:08.839Z,12.15
2019-05-21T22:05:38.322Z,13.32
2019-05-21T22:08:07.710Z,17.62
2019-05-21T22:10:36.793Z,10.65
2019-05-21T22:13:06.481Z,12.03
2019-05-21T22:15:35.759Z,11.15
2019-05-21T22:18:05.352Z,10.88
2019-05-21T22:20:35.731Z,9.75
2019-05-21T22:23:04.520Z,10.53
2019-05-21T22:25:33.393Z,11.83
2019-05-21T22:28:02.183Z,12.55
2019-05-21T22:30:31.959Z,11.35
2019-05-21T22:33:00.753Z,11.93
2019-05-21T22:35:29.527Z,10.18
2019-05-21T22:37:58.356Z,11.25
2019-05-21T22:40:27.231Z,12.63
2019-05-21T22:42:56.015Z,10.35
2019-05-21T22:45:24.955Z,10.13
2019-05-21T22:47:53.808Z,10.43
2019-05-21T22:50:22.817Z,9.83
2019-05-21T22:52:51.642Z,13.28
2019-05-21T22:55:20.467Z,11.43
2019-05-21T22:57:49.297Z,10.20
2019-05-21T23:00:18.315Z,9.20
2019-05-21T23:02:47.426Z,9.53
2019-05-21T23:05:16.263Z,11.78
2019-05-21T23:07:45.078Z,9.68
2019-05-21T23:10:14.999Z,10.28
2019-05-21T23:12:43.864Z,9.88
2019-05-21T23:15:24.439Z,10.78
2019-05-21T23:17:43.942Z,9.10
2019-05-21T23:20:13.467Z,9.23
2019-05-21T23:22:44.759Z,9.83
2019-05-21T23:25:14.282Z,10.75
2019-05-21T23:27:43.528Z,9.63
2019-05-21T23:30:14.720Z,10.13
2019-05-21T23:32:44.133Z,10.88
2019-05-21T23:35:14.454Z,9.78
2019-05-21T23:37:44.769Z,9.23
2019-05-21T23:40:15.702Z,8.98
2019-05-21T23:42:44.624Z,12.30
2019-05-21T23:45:14.943Z,9.63
2019-05-21T23:47:43.750Z,9.25
2019-05-21T23:50:13.076Z,11.43
2019-05-21T23:52:42.004Z,10.15
2019-05-21T23:55:11.236Z,10.68
2019-05-21T23:57:40.443Z,9.45
